aviador You're here:

KNEW Decoded Metar

NEW ORLEANS/LAKE in LA, USA
Report Time2017-05-23 14:29:00
UTC Time2017-05-23 14:40:10
Flight Rules vfr VFR
Wind300° at 13 kt
W.Decomp.*RWY 27: 11.5 kt HW 6.1 kt RCW
RWY 36: 6.1 kt HW 11.5 kt LCW
W.Rank300° ranks 30
Current wind is above 300° avg. (9.4)
Visibility9999 m
Phenomena:N/A
Clouds:Few 016 Hf
Scattered 025 Hf
Scattered 033 Hf
Expected CloudBase > 1,600 ft AGL from Temp-Dew spread
CeilingNone
Temp26°C (ISA +11)
Dew Point22°C (79% RH)
QNH1008 hPa
Density Alt1,801 ft
Elevation10 ft
Report Wrong Elevation
Raw Report
KNEW 231429Z 30013KT 10SM FEW016 SCT025 SCT033 26/22 A2978 RMK AO2
T02560222=

Extra information for KNEW:More info

Metar Taf Metar & Taf Last 4 Metars F.Rules Stats Wind Profile Meteogram Temp Stats Airport Information Weather charts Add Link Nearby VenuesMetar ALERT Operation Metar Decoded Social comments

AIRNAV info for KNEW